createdAt,value
2022-09-15T00:00:20.894Z,3.60
2022-09-15T00:02:48.058Z,3.80
2022-09-15T00:05:15.226Z,4.93
2022-09-15T00:07:42.392Z,4.17
2022-09-15T00:10:10.508Z,4.10
2022-09-15T00:12:39.175Z,4.33
2022-09-15T00:15:17.868Z,4.57
2022-09-15T00:17:50.091Z,4.70
2022-09-15T00:20:19.286Z,4.60
2022-09-15T00:22:47.168Z,5.10
2022-09-15T00:25:16.898Z,4.57
2022-09-15T00:27:45.806Z,4.53
2022-09-15T00:30:12.836Z,4.77
2022-09-15T00:32:39.942Z,4.70
2022-09-15T00:35:07.710Z,4.77
2022-09-15T00:37:36.045Z,4.70
2022-09-15T00:40:05.027Z,5.17
2022-09-15T00:42:34.853Z,4.57
2022-09-15T00:45:03.845Z,4.80
2022-09-15T00:47:37.627Z,4.77
2022-09-15T00:50:14.513Z,5.10
2022-09-15T00:52:58.144Z,5.20
2022-09-15T00:55:37.244Z,4.67
2022-09-15T00:58:07.999Z,4.60
2022-09-15T01:03:22.988Z,4.70
2022-09-15T01:05:58.220Z,4.73
2022-09-15T01:09:12.450Z,4.90
2022-09-15T01:11:44.521Z,4.80
2022-09-15T01:14:14.664Z,5.37
2022-09-15T01:20:24.190Z,5.13
2022-09-15T01:23:15.555Z,5.13
2022-09-15T01:25:48.491Z,5.30
2022-09-15T01:29:01.505Z,5.53
2022-09-15T01:32:08.548Z,5.20
2022-09-15T01:34:45.512Z,5.27
2022-09-15T01:37:22.899Z,6.00
2022-09-15T01:39:53.300Z,6.37
2022-09-15T01:42:23.408Z,7.20
2022-09-15T01:44:59.199Z,7.30
2022-09-15T01:47:33.899Z,7.53
2022-09-15T01:50:10.567Z,6.97
2022-09-15T01:52:50.654Z,7.17
2022-09-15T01:55:38.950Z,7.30
2022-09-15T01:58:07.242Z,7.63
2022-09-15T02:00:39.602Z,7.90
2022-09-15T02:03:35.400Z,7.23
2022-09-15T02:06:10.610Z,7.73
2022-09-15T02:08:47.761Z,7.30
2022-09-15T02:11:22.245Z,7.40
2022-09-15T02:14:13.943Z,7.53
2022-09-15T02:16:46.440Z,7.17
2022-09-15T02:19:16.328Z,7.10
2022-09-15T02:22:10.974Z,7.07
2022-09-15T02:25:03.205Z,7.17
2022-09-15T02:27:34.091Z,7.20
2022-09-15T02:30:10.305Z,6.97
2022-09-15T02:32:41.272Z,7.43
2022-09-15T02:35:12.389Z,6.87
2022-09-15T02:37:45.070Z,7.83
2022-09-15T02:40:13.155Z,7.77
2022-09-15T02:42:51.577Z,7.03
2022-09-15T02:45:20.376Z,6.33
2022-09-15T02:47:50.454Z,6.70
2022-09-15T02:50:19.043Z,6.70
2022-09-15T02:52:47.626Z,6.60
2022-09-15T02:55:14.583Z,6.37
2022-09-15T02:57:44.391Z,5.83
2022-09-15T03:00:18.797Z,6.73
2022-09-15T03:02:50.169Z,6.03
2022-09-15T03:05:19.954Z,6.47
2022-09-15T03:07:50.176Z,5.27
2022-09-15T03:10:20.919Z,5.70
2022-09-15T03:12:52.720Z,5.30
2022-09-15T03:15:22.794Z,5.27
2022-09-15T03:17:50.215Z,5.80
2022-09-15T03:20:20.663Z,5.47
2022-09-15T03:22:48.573Z,5.30
2022-09-15T03:25:17.095Z,5.07
2022-09-15T03:27:46.619Z,4.90
2022-09-15T03:30:14.245Z,5.10
2022-09-15T03:32:41.118Z,4.77
2022-09-15T03:35:08.452Z,4.43
2022-09-15T03:37:35.619Z,4.97
2022-09-15T03:40:03.961Z,4.43
2022-09-15T03:42:30.878Z,4.90
2022-09-15T03:44:57.626Z,4.30
2022-09-15T03:47:24.485Z,4.50
2022-09-15T03:49:51.205Z,4.93
2022-09-15T03:52:17.929Z,4.43
2022-09-15T03:54:44.620Z,4.60
2022-09-15T03:57:11.400Z,4.00
2022-09-15T03:59:38.123Z,4.00
2022-09-15T04:02:04.926Z,3.80
2022-09-15T04:04:31.897Z,4.13
2022-09-15T04:06:58.638Z,3.87
2022-09-15T04:09:25.797Z,3.30
2022-09-15T04:11:52.491Z,3.40
2022-09-15T04:14:19.643Z,3.80
2022-09-15T04:16:46.393Z,3.37
2022-09-15T04:19:13.727Z,3.10
2022-09-15T04:21:40.570Z,3.70
2022-09-15T04:24:07.434Z,3.50
2022-09-15T04:26:36.315Z,3.67
2022-09-15T04:29:05.772Z,3.30
2022-09-15T04:31:34.138Z,3.10
2022-09-15T04:34:00.985Z,3.47
2022-09-15T04:36:29.153Z,4.03
2022-09-15T04:38:57.187Z,3.40
2022-09-15T04:41:25.510Z,3.47
2022-09-15T04:43:52.687Z,3.00
2022-09-15T04:46:20.075Z,3.60
2022-09-15T04:48:48.773Z,3.50
2022-09-15T04:51:18.604Z,2.97
2022-09-15T04:53:46.032Z,3.43
2022-09-15T04:56:16.382Z,2.90
2022-09-15T04:58:48.755Z,2.70
2022-09-15T05:01:21.468Z,2.60
2022-09-15T05:03:48.829Z,3.83
2022-09-15T05:06:21.631Z,4.00
2022-09-15T05:08:50.372Z,3.37
2022-09-15T05:11:17.610Z,3.03
2022-09-15T05:13:44.407Z,3.43
2022-09-15T05:16:13.514Z,3.40
2022-09-15T05:18:42.384Z,3.10
2022-09-15T05:21:11.035Z,2.83
2022-09-15T05:23:38.649Z,2.23
2022-09-15T05:26:08.533Z,2.60
2022-09-15T05:28:37.140Z,2.30
2022-09-15T05:31:09.964Z,2.03
2022-09-15T05:33:37.542Z,1.97
2022-09-15T05:36:07.307Z,2.00
2022-09-15T05:38:34.104Z,1.97
2022-09-15T05:41:07.937Z,2.63
2022-09-15T05:43:36.623Z,2.23
2022-09-15T05:46:04.243Z,2.33
2022-09-15T05:48:31.306Z,2.03
2022-09-15T05:50:58.579Z,2.40
2022-09-15T05:53:25.551Z,1.93
2022-09-15T05:55:59.886Z,2.03
2022-09-15T05:58:27.598Z,2.40
2022-09-15T06:00:54.903Z,2.80
2022-09-15T06:03:27.517Z,2.27
2022-09-15T06:06:05.396Z,2.10
2022-09-15T06:08:34.936Z,2.20
2022-09-15T06:11:09.956Z,2.00
2022-09-15T06:13:37.266Z,2.70
2022-09-15T06:16:07.099Z,2.33
2022-09-15T06:18:35.452Z,2.13
2022-09-15T06:21:08.471Z,2.20
2022-09-15T06:23:36.029Z,2.27
2022-09-15T06:26:19.006Z,2.87
2022-09-15T06:28:57.174Z,2.87
2022-09-15T06:31:26.152Z,2.57
2022-09-15T06:33:55.976Z,2.47
2022-09-15T06:36:26.138Z,2.40
2022-09-15T06:38:53.507Z,2.60
2022-09-15T06:41:21.369Z,2.50
2022-09-15T06:43:49.285Z,2.90
2022-09-15T06:46:19.459Z,2.87
2022-09-15T06:48:48.509Z,2.50
2022-09-15T06:51:17.301Z,2.40
2022-09-15T06:53:44.635Z,2.70
2022-09-15T06:56:14.482Z,2.60
2022-09-15T06:58:42.767Z,2.13
2022-09-15T07:01:12.433Z,2.23
2022-09-15T07:03:41.129Z,1.63
2022-09-15T07:06:09.109Z,1.95
2022-09-15T07:08:35.888Z,1.88
2022-09-15T07:11:02.667Z,1.77
2022-09-15T07:13:29.430Z,1.53
2022-09-15T07:15:58.665Z,2.23
2022-09-15T07:18:26.823Z,1.40
2022-09-15T07:20:59.382Z,1.57
2022-09-15T07:23:26.700Z,1.70
2022-09-15T07:26:04.372Z,1.90
2022-09-15T07:28:35.256Z,1.70
2022-09-15T07:31:03.677Z,1.63
2022-09-15T07:33:30.355Z,1.60
2022-09-15T07:35:57.057Z,1.87
2022-09-15T07:38:23.968Z,1.80
2022-09-15T07:40:50.746Z,2.23
2022-09-15T07:43:17.498Z,1.70
2022-09-15T07:45:44.742Z,1.63
2022-09-15T07:48:11.672Z,1.40
2022-09-15T07:50:38.444Z,1.50
2022-09-15T07:53:05.249Z,1.53
2022-09-15T07:55:32.852Z,1.20
2022-09-15T07:58:01.078Z,1.33
2022-09-15T08:00:28.099Z,1.23
2022-09-15T08:02:55.451Z,2.07
2022-09-15T08:05:27.045Z,1.60
2022-09-15T08:07:57.187Z,2.33
2022-09-15T08:10:25.399Z,1.67
2022-09-15T08:12:52.798Z,2.13
2022-09-15T08:15:20.066Z,1.60
2022-09-15T08:17:47.108Z,1.83
2022-09-15T08:20:14.086Z,1.17
2022-09-15T08:22:42.335Z,1.30
2022-09-15T08:25:09.614Z,1.10
2022-09-15T08:27:36.377Z,1.23
2022-09-15T08:30:04.749Z,1.30
2022-09-15T08:32:31.718Z,1.25
2022-09-15T08:34:58.431Z,0.95
2022-09-15T08:37:25.259Z,1.25
2022-09-15T08:39:52.231Z,1.55
2022-09-15T08:42:20.732Z,1.20
2022-09-15T08:45:05.659Z,1.20
2022-09-15T08:47:36.805Z,1.10
2022-09-15T08:50:18.709Z,1.85
2022-09-15T08:52:59.158Z,0.98
2022-09-15T08:55:45.609Z,0.95
2022-09-15T08:58:16.833Z,1.00
2022-09-15T09:00:45.576Z,1.40
2022-09-15T09:03:19.251Z,1.15
2022-09-15T09:05:57.306Z,1.15
2022-09-15T09:09:01.851Z,1.05
2022-09-15T09:12:03.652Z,0.93
2022-09-15T09:15:09.352Z,1.45
2022-09-15T09:17:44.441Z,1.10
2022-09-15T09:20:19.927Z,1.20
2022-09-15T09:22:50.165Z,1.20
2022-09-15T09:25:27.347Z,1.10
2022-09-15T09:27:55.577Z,0.98
2022-09-15T09:30:25.085Z,0.90
2022-09-15T09:33:13.828Z,1.08
2022-09-15T09:35:46.762Z,1.40
2022-09-15T09:38:20.465Z,1.20
2022-09-15T09:40:47.967Z,1.00
2022-09-15T09:43:15.924Z,1.00
2022-09-15T09:45:42.927Z,0.85
2022-09-15T09:48:34.840Z,1.10
2022-09-15T09:51:01.933Z,1.17
2022-09-15T09:53:33.258Z,1.15
2022-09-15T09:56:11.910Z,1.10
2022-09-15T09:58:38.990Z,1.15
2022-09-15T10:01:17.551Z,0.70
2022-09-15T10:03:45.467Z,0.80
2022-09-15T10:06:14.659Z,1.55
2022-09-15T10:09:05.831Z,1.00
2022-09-15T10:11:59.045Z,1.20
2022-09-15T10:14:41.525Z,1.02
2022-09-15T10:17:13.641Z,1.23
2022-09-15T10:19:46.741Z,1.20
2022-09-15T10:22:31.458Z,1.20
2022-09-15T10:25:00.456Z,1.50
2022-09-15T10:27:35.763Z,1.15
2022-09-15T10:30:23.134Z,0.93
2022-09-15T10:32:50.035Z,1.02
2022-09-15T10:35:19.090Z,1.25
2022-09-15T10:38:04.978Z,0.93
2022-09-15T10:40:59.058Z,1.00
2022-09-15T10:43:46.740Z,1.00
2022-09-15T10:46:26.664Z,1.00
2022-09-15T10:49:04.941Z,0.90
2022-09-15T10:51:39.215Z,1.10
2022-09-15T10:54:11.624Z,1.15
2022-09-15T10:56:44.201Z,0.90
2022-09-15T10:59:19.561Z,1.25
2022-09-15T11:02:43.874Z,1.00
2022-09-15T11:05:40.203Z,1.02
2022-09-15T11:08:23.747Z,1.08
2022-09-15T11:11:04.678Z,1.00
2022-09-15T11:13:56.672Z,1.10
2022-09-15T11:16:51.680Z,1.13
2022-09-15T11:19:25.225Z,0.95
2022-09-15T11:22:05.642Z,0.98
2022-09-15T11:24:44.165Z,1.13
2022-09-15T11:27:24.121Z,1.45
2022-09-15T11:30:11.030Z,1.30
2022-09-15T11:32:47.154Z,1.10
2022-09-15T11:35:31.114Z,1.10
2022-09-15T11:38:30.803Z,0.90
2022-09-15T11:41:21.838Z,0.80
2022-09-15T11:44:16.820Z,1.13
2022-09-15T11:47:05.491Z,1.27
2022-09-15T11:49:54.462Z,0.82
2022-09-15T11:52:59.099Z,1.17
2022-09-15T11:55:42.943Z,0.90
2022-09-15T11:58:29.039Z,1.05
2022-09-15T12:01:01.988Z,1.15
2022-09-15T12:03:47.666Z,1.23
2022-09-15T12:06:46.372Z,1.52
2022-09-15T12:09:18.203Z,1.00
2022-09-15T12:11:47.529Z,1.02
2022-09-15T12:14:17.849Z,1.00
2022-09-15T12:16:45.335Z,1.00
2022-09-15T12:19:34.126Z,1.20
2022-09-15T12:22:29.727Z,1.67
2022-09-15T12:25:11.266Z,1.20
2022-09-15T12:27:38.171Z,1.10
2022-09-15T12:30:06.287Z,1.45
2022-09-15T12:32:35.189Z,1.10
2022-09-15T12:35:25.070Z,1.50
2022-09-15T12:37:59.848Z,1.75
2022-09-15T12:40:35.776Z,1.27
2022-09-15T12:43:23.557Z,1.20
2022-09-15T12:45:59.696Z,0.70
2022-09-15T12:48:33.983Z,0.70
2022-09-15T12:51:05.161Z,0.93
2022-09-15T12:53:52.303Z,0.80
2022-09-15T12:56:25.164Z,0.80
2022-09-15T12:58:54.178Z,0.93
2022-09-15T13:01:27.120Z,0.90
2022-09-15T13:03:55.339Z,0.70
2022-09-15T13:06:30.157Z,1.00
2022-09-15T13:09:03.617Z,1.13
2022-09-15T13:11:39.345Z,1.00
2022-09-15T13:14:13.808Z,0.77
2022-09-15T13:16:40.642Z,0.93
2022-09-15T13:19:14.049Z,0.80
2022-09-15T13:21:49.681Z,0.80
2022-09-15T13:24:22.825Z,0.90
2022-09-15T13:26:55.759Z,0.90
2022-09-15T13:29:30.390Z,1.15
2022-09-15T13:32:16.016Z,0.90
2022-09-15T13:35:30.369Z,0.90
2022-09-15T13:38:26.249Z,0.95
2022-09-15T13:41:16.879Z,0.70
2022-09-15T13:44:21.241Z,0.77
2022-09-15T13:46:50.971Z,0.60
2022-09-15T13:49:42.558Z,0.80
2022-09-15T13:52:33.021Z,1.00
2022-09-15T13:55:15.493Z,0.77
2022-09-15T14:00:35.276Z,0.70
2022-09-15T14:03:07.873Z,0.80
2022-09-15T14:05:36.581Z,0.80
2022-09-15T14:08:29.473Z,0.85
2022-09-15T14:11:06.798Z,0.82
2022-09-15T14:13:37.371Z,1.00
2022-09-15T14:16:36.826Z,0.73
2022-09-15T14:19:29.285Z,0.98
2022-09-15T14:21:58.453Z,0.77
2022-09-15T14:24:31.888Z,1.00
2022-09-15T14:27:01.499Z,0.75
2022-09-15T14:29:31.594Z,1.00
2022-09-15T14:32:01.957Z,0.80
2022-09-15T14:34:35.288Z,0.80
2022-09-15T14:37:04.437Z,1.10
2022-09-15T14:39:31.791Z,0.88
2022-09-15T14:47:28.337Z,0.60
2022-09-15T14:50:08.201Z,0.85
2022-09-15T14:52:40.494Z,1.20
2022-09-15T14:55:17.025Z,1.27
2022-09-15T14:57:51.101Z,0.88
2022-09-15T15:00:23.580Z,0.82
2022-09-15T15:03:00.907Z,1.00
2022-09-15T15:05:37.696Z,0.70
2022-09-15T15:08:09.336Z,0.70
2022-09-15T15:10:37.262Z,0.80
2022-09-15T15:13:12.868Z,0.80
2022-09-15T15:15:40.324Z,0.80
2022-09-15T15:18:31.712Z,0.90
2022-09-15T15:21:04.179Z,0.75
2022-09-15T15:23:32.202Z,0.63
2022-09-15T15:26:27.016Z,0.70
2022-09-15T15:28:53.840Z,0.85
2022-09-15T15:31:26.938Z,1.00
2022-09-15T15:33:57.252Z,0.75
2022-09-15T15:36:28.474Z,0.60
2022-09-15T15:38:59.338Z,0.77
2022-09-15T15:41:34.437Z,0.88
2022-09-15T15:44:27.133Z,0.90
2022-09-15T15:47:00.567Z,0.90
2022-09-15T15:49:30.771Z,0.70
2022-09-15T15:51:59.320Z,1.00
2022-09-15T15:54:26.388Z,1.02
2022-09-15T15:57:20.245Z,0.90
2022-09-15T15:59:47.123Z,0.80
2022-09-15T16:02:23.908Z,1.05
2022-09-15T16:04:50.764Z,1.13
2022-09-15T16:07:20.633Z,0.80
2022-09-15T16:09:48.854Z,1.00
2022-09-15T16:12:18.680Z,0.80
2022-09-15T16:14:45.556Z,0.95
2022-09-15T16:17:12.452Z,0.70
2022-09-15T16:19:39.384Z,0.90
2022-09-15T16:22:07.470Z,0.80
2022-09-15T16:24:36.876Z,1.00
2022-09-15T16:27:11.330Z,0.90
2022-09-15T16:29:38.306Z,0.77
2022-09-15T16:32:06.189Z,0.70
2022-09-15T16:34:33.266Z,1.13
2022-09-15T16:37:00.131Z,0.73
2022-09-15T16:39:38.445Z,1.73
2022-09-15T16:42:05.571Z,0.98
2022-09-15T16:44:32.284Z,0.93
2022-09-15T16:46:59.184Z,0.98
2022-09-15T16:49:31.301Z,1.00
2022-09-15T16:51:58.068Z,1.23
2022-09-15T16:54:25.938Z,1.10
2022-09-15T16:56:52.749Z,1.17
2022-09-15T16:59:19.539Z,1.15
2022-09-15T17:01:46.329Z,0.98
2022-09-15T17:04:19.064Z,1.40
2022-09-15T17:06:48.878Z,1.00
2022-09-15T17:09:15.834Z,1.35
2022-09-15T17:11:43.086Z,1.43
2022-09-15T17:14:15.285Z,1.20
2022-09-15T17:16:42.077Z,1.00
2022-09-15T17:19:11.496Z,1.03
2022-09-15T17:21:40.999Z,1.53
2022-09-15T17:24:12.282Z,1.20
2022-09-15T17:26:39.213Z,1.10
2022-09-15T17:29:06.696Z,1.40
2022-09-15T17:31:33.588Z,1.10
2022-09-15T17:34:00.944Z,1.10
2022-09-15T17:36:27.735Z,1.00
2022-09-15T17:38:57.807Z,1.00
2022-09-15T17:41:26.580Z,1.00
2022-09-15T17:43:53.724Z,1.10
2022-09-15T17:46:20.681Z,1.10
2022-09-15T17:48:48.279Z,1.50
2022-09-15T17:51:19.741Z,1.37
2022-09-15T17:53:47.736Z,1.50
2022-09-15T17:56:14.645Z,1.73
2022-09-15T17:58:41.863Z,1.23
2022-09-15T18:01:13.434Z,1.23
2022-09-15T18:03:42.399Z,1.60
2022-09-15T18:06:11.131Z,1.10
2022-09-15T18:08:40.488Z,1.20
2022-09-15T18:11:07.374Z,1.53
2022-09-15T18:13:34.830Z,1.13
2022-09-15T18:16:10.267Z,0.97
2022-09-15T18:18:37.956Z,1.30
2022-09-15T18:21:09.760Z,1.40
2022-09-15T18:23:37.554Z,1.00
2022-09-15T18:26:04.502Z,1.60
2022-09-15T18:28:31.233Z,1.93
2022-09-15T18:30:58.000Z,2.03
2022-09-15T18:33:26.151Z,2.70
2022-09-15T18:35:55.409Z,2.30
2022-09-15T18:38:23.067Z,1.70
2022-09-15T18:40:53.440Z,3.30
2022-09-15T18:43:21.340Z,2.90
2022-09-15T18:45:48.405Z,18.23
2022-09-15T18:48:15.736Z,2.87
2022-09-15T18:50:44.674Z,3.67
2022-09-15T18:53:12.280Z,2.90
2022-09-15T18:55:43.784Z,1.87
2022-09-15T18:58:11.824Z,1.90
2022-09-15T19:00:39.069Z,1.30
2022-09-15T19:03:09.442Z,1.90
2022-09-15T19:05:37.126Z,3.57
2022-09-15T19:08:04.568Z,2.63
2022-09-15T19:10:32.490Z,2.00
2022-09-15T19:12:59.294Z,1.50
2022-09-15T19:15:25.970Z,1.60
2022-09-15T19:17:52.715Z,1.73
2022-09-15T19:20:19.497Z,1.20
2022-09-15T19:22:47.511Z,1.40
2022-09-15T19:25:14.672Z,1.20
2022-09-15T19:27:41.799Z,1.33
2022-09-15T19:30:10.102Z,1.00
2022-09-15T19:32:38.276Z,1.20
2022-09-15T19:35:08.073Z,1.30
2022-09-15T19:37:39.809Z,1.40
2022-09-15T19:40:10.190Z,1.27
2022-09-15T19:42:38.958Z,1.10
2022-09-15T19:45:07.081Z,1.33
2022-09-15T19:47:34.285Z,1.07
2022-09-15T19:50:01.030Z,1.20
2022-09-15T19:52:28.652Z,1.20
2022-09-15T19:54:55.375Z,1.10
2022-09-15T19:57:22.605Z,1.30
2022-09-15T19:59:49.833Z,1.40
2022-09-15T20:02:16.816Z,1.50
2022-09-15T20:07:27.906Z,1.80
2022-09-15T20:09:54.588Z,1.47
2022-09-15T20:14:53.103Z,1.20
2022-09-15T20:17:20.147Z,1.57
2022-09-15T20:19:46.867Z,1.37
2022-09-15T20:22:13.685Z,1.50
2022-09-15T20:24:40.567Z,1.63
2022-09-15T20:27:08.913Z,1.47
2022-09-15T20:29:35.846Z,1.77
2022-09-15T20:34:49.249Z,1.57
2022-09-15T20:37:16.166Z,1.57
2022-09-15T20:39:46.458Z,1.60
2022-09-15T20:42:13.713Z,1.60
2022-09-15T20:44:40.460Z,1.50
2022-09-15T20:47:07.333Z,1.57
2022-09-15T20:49:34.103Z,1.53
2022-09-15T20:52:00.889Z,1.60
2022-09-15T20:54:27.607Z,1.30
2022-09-15T20:56:54.301Z,1.40
2022-09-15T20:59:21.129Z,1.60
2022-09-15T21:01:48.966Z,1.40
2022-09-15T21:04:15.711Z,1.70
2022-09-15T21:06:42.381Z,1.73
2022-09-15T21:09:09.301Z,1.57
2022-09-15T21:11:39.843Z,1.20
2022-09-15T21:14:06.599Z,1.60
2022-09-15T21:16:34.922Z,1.60
2022-09-15T21:19:01.942Z,1.30
2022-09-15T21:21:33.176Z,1.67
2022-09-15T21:24:06.231Z,1.10
2022-09-15T21:26:57.590Z,1.80
2022-09-15T21:29:24.693Z,1.37
2022-09-15T21:31:51.690Z,1.60
2022-09-15T21:34:20.231Z,1.50
2022-09-15T21:36:50.968Z,2.17
2022-09-15T21:39:17.996Z,1.43
2022-09-15T21:41:44.836Z,1.87
2022-09-15T21:44:12.265Z,2.10
2022-09-15T21:46:39.082Z,1.63
2022-09-15T21:49:05.957Z,2.10
2022-09-15T21:51:32.946Z,1.60
2022-09-15T21:54:02.877Z,1.63
2022-09-15T21:56:30.203Z,1.77
2022-09-15T21:58:57.369Z,1.30
2022-09-15T22:01:28.083Z,1.60
2022-09-15T22:04:05.813Z,1.23
2022-09-15T22:06:36.998Z,1.43
2022-09-15T22:09:07.336Z,1.70
2022-09-15T22:11:34.738Z,1.53
2022-09-15T22:14:03.147Z,1.30
2022-09-15T22:16:30.871Z,1.67
2022-09-15T22:18:57.976Z,1.30
2022-09-15T22:21:26.939Z,1.10
2022-09-15T22:23:56.281Z,1.20
2022-09-15T22:26:29.411Z,1.10
2022-09-15T22:28:58.147Z,1.00
2022-09-15T22:31:26.964Z,1.30
2022-09-15T22:33:54.300Z,0.90
2022-09-15T22:36:28.575Z,0.97
2022-09-15T22:38:57.367Z,0.80
2022-09-15T22:41:27.403Z,1.10
2022-09-15T22:43:54.157Z,0.80
2022-09-15T22:46:21.236Z,1.20
2022-09-15T22:48:48.226Z,1.07
2022-09-15T22:51:15.138Z,1.07
2022-09-15T22:53:42.339Z,1.13
2022-09-15T22:56:23.307Z,1.20
2022-09-15T22:58:50.377Z,1.47
2022-09-15T23:01:19.909Z,1.43
2022-09-15T23:03:51.925Z,1.60
2022-09-15T23:06:20.458Z,1.70
2022-09-15T23:08:52.261Z,1.17
2022-09-15T23:11:19.353Z,1.60
2022-09-15T23:13:46.228Z,1.47
2022-09-15T23:16:12.973Z,1.97
2022-09-15T23:18:39.952Z,1.67
2022-09-15T23:21:11.739Z,2.00
2022-09-15T23:23:40.512Z,1.50
2022-09-15T23:26:10.282Z,1.80
2022-09-15T23:28:39.137Z,1.83
2022-09-15T23:31:07.095Z,1.93
2022-09-15T23:33:37.822Z,1.63
2022-09-15T23:36:07.918Z,2.10
2022-09-15T23:38:42.601Z,2.37
2022-09-15T23:41:11.336Z,2.50
2022-09-15T23:43:38.017Z,2.37
2022-09-15T23:46:05.381Z,2.80
2022-09-15T23:48:32.629Z,2.40
2022-09-15T23:51:00.185Z,3.13
2022-09-15T23:53:29.421Z,2.70
2022-09-15T23:55:56.609Z,3.03
2022-09-15T23:58:23.340Z,3.30
